sensor_id;sensor_type;location;lat;lon;timestamp;temperature;humidity
18067;DHT22;9158;51.528;7.192;2023-07-13T00:00:24;18.30;36.10
18067;DHT22;9158;51.528;7.192;2023-07-13T00:00:55;18.30;34.40
18067;DHT22;9158;51.528;7.192;2023-07-13T00:01:28;18.30;34.10
18067;DHT22;9158;51.528;7.192;2023-07-13T00:01:59;18.40;30.60
18067;DHT22;9158;51.528;7.192;2023-07-13T00:02:30;18.40;29.90
18067;DHT22;9158;51.528;7.192;2023-07-13T00:03:01;18.40;28.50
18067;DHT22;9158;51.528;7.192;2023-07-13T00:03:33;18.40;28.30
18067;DHT22;9158;51.528;7.192;2023-07-13T00:04:05;18.40;25.40
18067;DHT22;9158;51.528;7.192;2023-07-13T00:04:36;18.40;25.80
18067;DHT22;9158;51.528;7.192;2023-07-13T00:05:08;18.40;27.30
18067;DHT22;9158;51.528;7.192;2023-07-13T00:05:40;18.40;26.50
18067;DHT22;9158;51.528;7.192;2023-07-13T00:06:11;18.40;28.30
18067;DHT22;9158;51.528;7.192;2023-07-13T00:06:43;18.50;28.60
18067;DHT22;9158;51.528;7.192;2023-07-13T00:07:16;18.50;32.20
18067;DHT22;9158;51.528;7.192;2023-07-13T00:07:52;18.50;30.30
18067;DHT22;9158;51.528;7.192;2023-07-13T00:08:22;18.50;31.00
18067;DHT22;9158;51.528;7.192;2023-07-13T00:08:54;18.40;33.10
18067;DHT22;9158;51.528;7.192;2023-07-13T00:09:25;18.40;34.50
18067;DHT22;9158;51.528;7.192;2023-07-13T00:09:57;18.40;35.20
18067;DHT22;9158;51.528;7.192;2023-07-13T00:10:28;18.40;35.30
18067;DHT22;9158;51.528;7.192;2023-07-13T00:11:00;18.40;36.50
18067;DHT22;9158;51.528;7.192;2023-07-13T00:11:31;18.40;41.20
18067;DHT22;9158;51.528;7.192;2023-07-13T00:12:03;18.40;36.00
18067;DHT22;9158;51.528;7.192;2023-07-13T00:12:36;18.30;35.50
18067;DHT22;9158;51.528;7.192;2023-07-13T00:13:08;18.30;35.90
18067;DHT22;9158;51.528;7.192;2023-07-13T00:13:39;18.20;39.00
18067;DHT22;9158;51.528;7.192;2023-07-13T00:14:10;18.20;37.10
18067;DHT22;9158;51.528;7.192;2023-07-13T00:14:41;18.20;42.40
18067;DHT22;9158;51.528;7.192;2023-07-13T00:15:16;18.20;42.50
18067;DHT22;9158;51.528;7.192;2023-07-13T00:15:51;18.10;42.60
18067;DHT22;9158;51.528;7.192;2023-07-13T00:16:24;18.10;45.40
18067;DHT22;9158;51.528;7.192;2023-07-13T00:16:56;18.00;43.60
18067;DHT22;9158;51.528;7.192;2023-07-13T00:17:28;18.00;47.00
18067;DHT22;9158;51.528;7.192;2023-07-13T00:17:59;18.00;52.70
18067;DHT22;9158;51.528;7.192;2023-07-13T00:18:31;18.00;51.80
18067;DHT22;9158;51.528;7.192;2023-07-13T00:19:04;16.80;51.00
18067;DHT22;9158;51.528;7.192;2023-07-13T00:19:35;18.00;56.40
18067;DHT22;9158;51.528;7.192;2023-07-13T00:20:08;18.00;54.90
18067;DHT22;9158;51.528;7.192;2023-07-13T00:20:40;17.90;56.40
18067;DHT22;9158;51.528;7.192;2023-07-13T00:21:12;18.00;55.30
18067;DHT22;9158;51.528;7.192;2023-07-13T00:21:45;18.00;50.60
18067;DHT22;9158;51.528;7.192;2023-07-13T00:22:17;17.90;53.30
18067;DHT22;9158;51.528;7.192;2023-07-13T00:22:48;17.90;54.70
18067;DHT22;9158;51.528;7.192;2023-07-13T00:23:20;17.90;60.30
18067;DHT22;9158;51.528;7.192;2023-07-13T00:23:50;17.90;58.20
18067;DHT22;9158;51.528;7.192;2023-07-13T00:24:23;17.90;56.10
18067;DHT22;9158;51.528;7.192;2023-07-13T00:24:54;17.90;56.10
18067;DHT22;9158;51.528;7.192;2023-07-13T00:25:26;17.90;53.10
18067;DHT22;9158;51.528;7.192;2023-07-13T00:25:58;17.90;46.40
18067;DHT22;9158;51.528;7.192;2023-07-13T00:26:30;17.90;49.40
18067;DHT22;9158;51.528;7.192;2023-07-13T00:27:03;17.90;49.50
18067;DHT22;9158;51.528;7.192;2023-07-13T00:27:34;17.90;54.20
18067;DHT22;9158;51.528;7.192;2023-07-13T00:28:06;17.90;47.80
18067;DHT22;9158;51.528;7.192;2023-07-13T00:28:37;17.90;46.70
18067;DHT22;9158;51.528;7.192;2023-07-13T00:29:08;17.80;46.10
18067;DHT22;9158;51.528;7.192;2023-07-13T00:29:39;17.90;49.80
18067;DHT22;9158;51.528;7.192;2023-07-13T00:30:12;17.80;49.20
18067;DHT22;9158;51.528;7.192;2023-07-13T00:30:43;17.80;50.50
18067;DHT22;9158;51.528;7.192;2023-07-13T00:31:15;17.90;52.50
18067;DHT22;9158;51.528;7.192;2023-07-13T00:31:46;17.80;49.60
18067;DHT22;9158;51.528;7.192;2023-07-13T00:32:18;17.80;48.60
18067;DHT22;9158;51.528;7.192;2023-07-13T00:32:49;17.80;51.00
18067;DHT22;9158;51.528;7.192;2023-07-13T00:33:20;17.80;53.80
18067;DHT22;9158;51.528;7.192;2023-07-13T00:33:51;17.80;54.60
18067;DHT22;9158;51.528;7.192;2023-07-13T00:34:23;17.80;58.90
18067;DHT22;9158;51.528;7.192;2023-07-13T00:34:54;17.80;62.30
18067;DHT22;9158;51.528;7.192;2023-07-13T00:35:26;17.80;56.90
18067;DHT22;9158;51.528;7.192;2023-07-13T00:35:57;17.70;55.80
18067;DHT22;9158;51.528;7.192;2023-07-13T00:36:30;17.70;55.20
18067;DHT22;9158;51.528;7.192;2023-07-13T00:37:04;17.70;55.60
18067;DHT22;9158;51.528;7.192;2023-07-13T00:37:37;17.60;58.30
18067;DHT22;9158;51.528;7.192;2023-07-13T00:38:08;17.60;63.80
18067;DHT22;9158;51.528;7.192;2023-07-13T00:38:40;17.50;56.00
18067;DHT22;9158;51.528;7.192;2023-07-13T00:39:12;17.50;58.50
18067;DHT22;9158;51.528;7.192;2023-07-13T00:39:43;17.50;61.60
18067;DHT22;9158;51.528;7.192;2023-07-13T00:40:15;17.50;66.10
18067;DHT22;9158;51.528;7.192;2023-07-13T00:40:49;17.50;70.00
18067;DHT22;9158;51.528;7.192;2023-07-13T00:41:20;17.40;67.60
18067;DHT22;9158;51.528;7.192;2023-07-13T00:41:51;17.40;62.90
18067;DHT22;9158;51.528;7.192;2023-07-13T00:42:24;17.40;66.70
18067;DHT22;9158;51.528;7.192;2023-07-13T00:42:58;17.40;68.50
18067;DHT22;9158;51.528;7.192;2023-07-13T00:43:29;17.40;70.00
18067;DHT22;9158;51.528;7.192;2023-07-13T00:44:00;17.40;72.80
18067;DHT22;9158;51.528;7.192;2023-07-13T00:44:32;17.40;73.60
18067;DHT22;9158;51.528;7.192;2023-07-13T00:46:20;17.30;72.20
18067;DHT22;9158;51.528;7.192;2023-07-13T00:46:52;17.30;71.00
18067;DHT22;9158;51.528;7.192;2023-07-13T00:47:23;17.30;72.70
18067;DHT22;9158;51.528;7.192;2023-07-13T00:47:55;17.30;74.80
18067;DHT22;9158;51.528;7.192;2023-07-13T00:48:34;17.30;70.70
18067;DHT22;9158;51.528;7.192;2023-07-13T00:49:07;17.30;75.00
18067;DHT22;9158;51.528;7.192;2023-07-13T00:49:39;17.30;74.20
18067;DHT22;9158;51.528;7.192;2023-07-13T00:50:13;17.30;76.40
18067;DHT22;9158;51.528;7.192;2023-07-13T00:50:48;17.30;76.10
18067;DHT22;9158;51.528;7.192;2023-07-13T00:51:30;17.30;74.30
18067;DHT22;9158;51.528;7.192;2023-07-13T00:52:05;17.30;77.10
18067;DHT22;9158;51.528;7.192;2023-07-13T00:52:41;17.30;72.70
18067;DHT22;9158;51.528;7.192;2023-07-13T00:53:13;18.20;78.00
18067;DHT22;9158;51.528;7.192;2023-07-13T00:53:44;17.30;84.00
18067;DHT22;9158;51.528;7.192;2023-07-13T00:54:19;17.30;89.70
18067;DHT22;9158;51.528;7.192;2023-07-13T00:54:52;17.30;83.90
18067;DHT22;9158;51.528;7.192;2023-07-13T00:55:24;17.30;80.50
18067;DHT22;9158;51.528;7.192;2023-07-13T00:55:56;17.20;79.10
18067;DHT22;9158;51.528;7.192;2023-07-13T00:56:28;17.30;79.80
18067;DHT22;9158;51.528;7.192;2023-07-13T00:57:02;17.20;72.70
18067;DHT22;9158;51.528;7.192;2023-07-13T00:57:34;17.20;74.80
18067;DHT22;9158;51.528;7.192;2023-07-13T00:58:06;17.20;76.80
18067;DHT22;9158;51.528;7.192;2023-07-13T00:58:38;17.20;76.40
18067;DHT22;9158;51.528;7.192;2023-07-13T00:59:11;17.20;74.90
18067;DHT22;9158;51.528;7.192;2023-07-13T00:59:47;17.20;79.50
18067;DHT22;9158;51.528;7.192;2023-07-13T01:00:21;17.20;74.60
18067;DHT22;9158;51.528;7.192;2023-07-13T01:00:53;17.20;77.80
18067;DHT22;9158;51.528;7.192;2023-07-13T01:01:25;17.20;81.50
18067;DHT22;9158;51.528;7.192;2023-07-13T01:01:56;17.20;81.80
18067;DHT22;9158;51.528;7.192;2023-07-13T01:02:28;17.20;82.90
18067;DHT22;9158;51.528;7.192;2023-07-13T01:03:01;17.20;82.20
18067;DHT22;9158;51.528;7.192;2023-07-13T01:03:35;17.20;84.10
18067;DHT22;9158;51.528;7.192;2023-07-13T01:04:06;17.10;81.70
18067;DHT22;9158;51.528;7.192;2023-07-13T01:04:38;17.10;83.90
18067;DHT22;9158;51.528;7.192;2023-07-13T01:05:12;17.20;80.20
18067;DHT22;9158;51.528;7.192;2023-07-13T01:05:47;17.10;80.10
18067;DHT22;9158;51.528;7.192;2023-07-13T01:06:19;17.10;82.70
18067;DHT22;9158;51.528;7.192;2023-07-13T01:06:51;17.10;82.90
18067;DHT22;9158;51.528;7.192;2023-07-13T01:07:24;17.10;83.90
18067;DHT22;9158;51.528;7.192;2023-07-13T01:07:55;17.10;90.30
18067;DHT22;9158;51.528;7.192;2023-07-13T01:08:26;17.10;85.70
18067;DHT22;9158;51.528;7.192;2023-07-13T01:08:59;17.10;84.50
18067;DHT22;9158;51.528;7.192;2023-07-13T01:09:31;17.10;80.90
18067;DHT22;9158;51.528;7.192;2023-07-13T01:10:02;17.10;81.60
18067;DHT22;9158;51.528;7.192;2023-07-13T01:10:34;17.00;83.70
18067;DHT22;9158;51.528;7.192;2023-07-13T01:11:09;17.00;84.10
18067;DHT22;9158;51.528;7.192;2023-07-13T01:11:40;17.00;85.70
18067;DHT22;9158;51.528;7.192;2023-07-13T01:12:12;17.00;81.80
18067;DHT22;9158;51.528;7.192;2023-07-13T01:12:44;17.00;81.80
18067;DHT22;9158;51.528;7.192;2023-07-13T01:13:15;17.00;84.70
18067;DHT22;9158;51.528;7.192;2023-07-13T01:13:46;17.00;84.90
18067;DHT22;9158;51.528;7.192;2023-07-13T01:14:17;17.00;89.10
18067;DHT22;9158;51.528;7.192;2023-07-13T01:14:57;17.00;86.80
18067;DHT22;9158;51.528;7.192;2023-07-13T01:15:36;17.00;86.20
18067;DHT22;9158;51.528;7.192;2023-07-13T01:16:24;16.90;87.50
18067;DHT22;9158;51.528;7.192;2023-07-13T01:16:55;16.90;84.20
18067;DHT22;9158;51.528;7.192;2023-07-13T01:17:31;16.90;85.20
18067;DHT22;9158;51.528;7.192;2023-07-13T01:18:04;16.90;88.20
18067;DHT22;9158;51.528;7.192;2023-07-13T01:18:36;16.90;84.60
18067;DHT22;9158;51.528;7.192;2023-07-13T01:19:12;16.90;87.40
18067;DHT22;9158;51.528;7.192;2023-07-13T01:19:47;16.90;86.20
18067;DHT22;9158;51.528;7.192;2023-07-13T01:20:18;16.90;87.90
18067;DHT22;9158;51.528;7.192;2023-07-13T01:20:54;16.90;90.90
18067;DHT22;9158;51.528;7.192;2023-07-13T01:21:27;16.90;92.10
18067;DHT22;9158;51.528;7.192;2023-07-13T01:21:59;16.90;91.90
18067;DHT22;9158;51.528;7.192;2023-07-13T01:22:30;16.90;93.20
18067;DHT22;9158;51.528;7.192;2023-07-13T01:23:05;16.90;93.80
18067;DHT22;9158;51.528;7.192;2023-07-13T01:23:37;16.90;93.90
18067;DHT22;9158;51.528;7.192;2023-07-13T01:24:09;16.90;93.20
18067;DHT22;9158;51.528;7.192;2023-07-13T01:24:42;16.90;94.00
18067;DHT22;9158;51.528;7.192;2023-07-13T01:25:14;16.90;94.40
18067;DHT22;9158;51.528;7.192;2023-07-13T01:25:48;16.90;91.60
18067;DHT22;9158;51.528;7.192;2023-07-13T01:26:19;16.80;94.00
18067;DHT22;9158;51.528;7.192;2023-07-13T01:26:50;16.80;93.30
18067;DHT22;9158;51.528;7.192;2023-07-13T01:27:24;16.80;92.50
18067;DHT22;9158;51.528;7.192;2023-07-13T01:27:55;16.80;92.70
18067;DHT22;9158;51.528;7.192;2023-07-13T01:28:27;16.80;94.30
18067;DHT22;9158;51.528;7.192;2023-07-13T01:28:58;16.80;92.70
18067;DHT22;9158;51.528;7.192;2023-07-13T01:29:32;16.80;92.60
18067;DHT22;9158;51.528;7.192;2023-07-13T01:30:04;16.80;94.10
18067;DHT22;9158;51.528;7.192;2023-07-13T01:30:36;16.80;93.60
18067;DHT22;9158;51.528;7.192;2023-07-13T01:31:09;16.80;92.90
18067;DHT22;9158;51.528;7.192;2023-07-13T01:31:41;16.80;96.30
18067;DHT22;9158;51.528;7.192;2023-07-13T01:32:15;16.80;94.60
18067;DHT22;9158;51.528;7.192;2023-07-13T01:32:47;16.80;96.00
18067;DHT22;9158;51.528;7.192;2023-07-13T01:33:18;16.80;98.20
18067;DHT22;9158;51.528;7.192;2023-07-13T01:33:50;16.80;99.00
18067;DHT22;9158;51.528;7.192;2023-07-13T01:34:21;16.70;96.20
18067;DHT22;9158;51.528;7.192;2023-07-13T01:34:53;16.70;98.30
18067;DHT22;9158;51.528;7.192;2023-07-13T01:35:24;16.70;99.00
18067;DHT22;9158;51.528;7.192;2023-07-13T01:35:59;16.70;96.00
18067;DHT22;9158;51.528;7.192;2023-07-13T01:36:30;16.70;99.70
18067;DHT22;9158;51.528;7.192;2023-07-13T01:37:00;16.70;99.30
18067;DHT22;9158;51.528;7.192;2023-07-13T01:37:33;16.70;96.40
18067;DHT22;9158;51.528;7.192;2023-07-13T01:38:07;16.70;98.70
18067;DHT22;9158;51.528;7.192;2023-07-13T01:38:38;17.10;99.90
18067;DHT22;9158;51.528;7.192;2023-07-13T01:39:12;16.70;99.50
18067;DHT22;9158;51.528;7.192;2023-07-13T01:39:43;16.70;98.90
18067;DHT22;9158;51.528;7.192;2023-07-13T01:40:14;16.70;99.90
18067;DHT22;9158;51.528;7.192;2023-07-13T01:40:45;16.70;99.70
18067;DHT22;9158;51.528;7.192;2023-07-13T01:41:16;16.70;98.00
18067;DHT22;9158;51.528;7.192;2023-07-13T01:41:48;16.70;98.50
18067;DHT22;9158;51.528;7.192;2023-07-13T01:42:19;16.70;97.40
18067;DHT22;9158;51.528;7.192;2023-07-13T01:42:52;16.70;96.20
18067;DHT22;9158;51.528;7.192;2023-07-13T01:43:25;16.70;96.80
18067;DHT22;9158;51.528;7.192;2023-07-13T01:43:57;16.70;97.20
18067;DHT22;9158;51.528;7.192;2023-07-13T01:44:28;16.70;99.90
18067;DHT22;9158;51.528;7.192;2023-07-13T01:44:59;16.70;98.20
18067;DHT22;9158;51.528;7.192;2023-07-13T01:45:30;16.70;97.50
18067;DHT22;9158;51.528;7.192;2023-07-13T01:46:02;16.70;97.90
18067;DHT22;9158;51.528;7.192;2023-07-13T01:46:33;16.70;99.90
18067;DHT22;9158;51.528;7.192;2023-07-13T01:47:04;16.60;99.00
18067;DHT22;9158;51.528;7.192;2023-07-13T01:47:35;16.60;99.90
18067;DHT22;9158;51.528;7.192;2023-07-13T01:48:06;16.60;97.70
18067;DHT22;9158;51.528;7.192;2023-07-13T01:48:38;16.60;99.10
18067;DHT22;9158;51.528;7.192;2023-07-13T01:49:09;16.60;98.50
18067;DHT22;9158;51.528;7.192;2023-07-13T01:49:40;16.60;99.50
18067;DHT22;9158;51.528;7.192;2023-07-13T01:50:11;16.60;99.40
18067;DHT22;9158;51.528;7.192;2023-07-13T01:50:43;16.60;99.90
18067;DHT22;9158;51.528;7.192;2023-07-13T01:51:17;16.60;99.90
18067;DHT22;9158;51.528;7.192;2023-07-13T01:51:49;16.60;99.10
18067;DHT22;9158;51.528;7.192;2023-07-13T01:52:20;16.60;99.90
18067;DHT22;9158;51.528;7.192;2023-07-13T01:52:52;16.60;99.90
18067;DHT22;9158;51.528;7.192;2023-07-13T01:53:23;16.60;99.90
18067;DHT22;9158;51.528;7.192;2023-07-13T01:53:54;16.60;99.90
18067;DHT22;9158;51.528;7.192;2023-07-13T01:54:27;16.60;99.90
18067;DHT22;9158;51.528;7.192;2023-07-13T01:54:58;16.60;99.80
18067;DHT22;9158;51.528;7.192;2023-07-13T01:55:29;16.60;99.90
18067;DHT22;9158;51.528;7.192;2023-07-13T01:56:00;16.60;99.90
18067;DHT22;9158;51.528;7.192;2023-07-13T01:56:32;16.60;98.70
18067;DHT22;9158;51.528;7.192;2023-07-13T01:57:03;16.60;98.30
18067;DHT22;9158;51.528;7.192;2023-07-13T01:57:34;16.60;99.90
18067;DHT22;9158;51.528;7.192;2023-07-13T01:58:05;16.60;99.90
18067;DHT22;9158;51.528;7.192;2023-07-13T01:58:38;16.60;99.40
18067;DHT22;9158;51.528;7.192;2023-07-13T01:59:09;16.50;99.90
18067;DHT22;9158;51.528;7.192;2023-07-13T01:59:40;16.60;99.90
18067;DHT22;9158;51.528;7.192;2023-07-13T02:00:12;16.60;99.90
18067;DHT22;9158;51.528;7.192;2023-07-13T02:00:48;16.60;99.90
18067;DHT22;9158;51.528;7.192;2023-07-13T02:01:20;16.60;99.90
18067;DHT22;9158;51.528;7.192;2023-07-13T02:01:51;16.60;99.90
18067;DHT22;9158;51.528;7.192;2023-07-13T02:02:22;16.60;99.90
18067;DHT22;9158;51.528;7.192;2023-07-13T02:02:53;16.60;99.90
18067;DHT22;9158;51.528;7.192;2023-07-13T02:03:25;16.60;99.90
18067;DHT22;9158;51.528;7.192;2023-07-13T02:03:56;16.60;99.90
18067;DHT22;9158;51.528;7.192;2023-07-13T02:04:27;16.60;99.40
18067;DHT22;9158;51.528;7.192;2023-07-13T02:04:58;16.60;99.90
18067;DHT22;9158;51.528;7.192;2023-07-13T02:05:29;16.60;97.80
18067;DHT22;9158;51.528;7.192;2023-07-13T02:06:01;16.60;97.90
18067;DHT22;9158;51.528;7.192;2023-07-13T02:06:33;16.60;99.90
18067;DHT22;9158;51.528;7.192;2023-07-13T02:07:05;16.60;97.10
18067;DHT22;9158;51.528;7.192;2023-07-13T02:07:35;16.60;97.60
18067;DHT22;9158;51.528;7.192;2023-07-13T02:08:08;16.60;96.50
18067;DHT22;9158;51.528;7.192;2023-07-13T02:08:40;16.60;96.90
18067;DHT22;9158;51.528;7.192;2023-07-13T02:09:11;16.60;98.20
18067;DHT22;9158;51.528;7.192;2023-07-13T02:09:42;16.60;96.30
18067;DHT22;9158;51.528;7.192;2023-07-13T02:10:14;16.60;98.50
18067;DHT22;9158;51.528;7.192;2023-07-13T02:10:46;16.60;97.60
18067;DHT22;9158;51.528;7.192;2023-07-13T02:11:17;16.60;99.20
18067;DHT22;9158;51.528;7.192;2023-07-13T02:11:49;16.60;99.30
18067;DHT22;9158;51.528;7.192;2023-07-13T02:12:20;16.50;98.70
18067;DHT22;9158;51.528;7.192;2023-07-13T02:12:51;16.60;99.90
18067;DHT22;9158;51.528;7.192;2023-07-13T02:13:22;16.60;99.70
18067;DHT22;9158;51.528;7.192;2023-07-13T02:13:53;16.60;99.90
18067;DHT22;9158;51.528;7.192;2023-07-13T02:14:25;16.60;99.50
18067;DHT22;9158;51.528;7.192;2023-07-13T02:14:56;16.50;99.90
18067;DHT22;9158;51.528;7.192;2023-07-13T02:15:27;16.50;99.20
18067;DHT22;9158;51.528;7.192;2023-07-13T02:15:58;16.50;99.00
18067;DHT22;9158;51.528;7.192;2023-07-13T02:16:30;16.50;99.90
18067;DHT22;9158;51.528;7.192;2023-07-13T02:17:01;16.50;98.60
18067;DHT22;9158;51.528;7.192;2023-07-13T02:17:33;16.50;99.10
18067;DHT22;9158;51.528;7.192;2023-07-13T02:18:04;16.50;99.20
18067;DHT22;9158;51.528;7.192;2023-07-13T02:18:37;16.50;98.10
18067;DHT22;9158;51.528;7.192;2023-07-13T02:19:08;16.50;99.30
18067;DHT22;9158;51.528;7.192;2023-07-13T02:19:39;16.50;99.50
18067;DHT22;9158;51.528;7.192;2023-07-13T02:20:11;16.50;99.90
18067;DHT22;9158;51.528;7.192;2023-07-13T02:20:43;16.50;98.30
18067;DHT22;9158;51.528;7.192;2023-07-13T02:21:14;16.50;97.50
18067;DHT22;9158;51.528;7.192;2023-07-13T02:21:46;16.50;97.90
18067;DHT22;9158;51.528;7.192;2023-07-13T02:22:17;16.50;98.70
18067;DHT22;9158;51.528;7.192;2023-07-13T02:22:49;16.50;96.50
18067;DHT22;9158;51.528;7.192;2023-07-13T02:23:20;16.50;99.00
18067;DHT22;9158;51.528;7.192;2023-07-13T02:23:51;16.50;97.00
18067;DHT22;9158;51.528;7.192;2023-07-13T02:24:23;16.50;97.90
18067;DHT22;9158;51.528;7.192;2023-07-13T02:24:55;16.50;97.50
18067;DHT22;9158;51.528;7.192;2023-07-13T02:25:26;16.50;99.90
18067;DHT22;9158;51.528;7.192;2023-07-13T02:25:58;16.50;97.80
18067;DHT22;9158;51.528;7.192;2023-07-13T02:26:29;16.50;99.30
18067;DHT22;9158;51.528;7.192;2023-07-13T02:27:01;16.50;98.20
18067;DHT22;9158;51.528;7.192;2023-07-13T02:27:32;16.50;98.10
18067;DHT22;9158;51.528;7.192;2023-07-13T02:28:03;16.50;99.90
18067;DHT22;9158;51.528;7.192;2023-07-13T02:28:34;16.50;98.50
18067;DHT22;9158;51.528;7.192;2023-07-13T02:29:06;16.50;99.90
18067;DHT22;9158;51.528;7.192;2023-07-13T02:29:37;16.50;99.70
18067;DHT22;9158;51.528;7.192;2023-07-13T02:30:11;16.50;99.90
18067;DHT22;9158;51.528;7.192;2023-07-13T02:30:43;16.50;99.90
18067;DHT22;9158;51.528;7.192;2023-07-13T02:31:15;16.50;99.60
18067;DHT22;9158;51.528;7.192;2023-07-13T02:31:46;16.50;99.30
18067;DHT22;9158;51.528;7.192;2023-07-13T02:32:17;16.40;99.90
18067;DHT22;9158;51.528;7.192;2023-07-13T02:32:48;16.40;99.90
18067;DHT22;9158;51.528;7.192;2023-07-13T02:33:22;16.40;99.90
18067;DHT22;9158;51.528;7.192;2023-07-13T02:33:53;16.40;99.90
18067;DHT22;9158;51.528;7.192;2023-07-13T02:34:24;16.40;99.90
18067;DHT22;9158;51.528;7.192;2023-07-13T02:34:55;16.40;99.90
18067;DHT22;9158;51.528;7.192;2023-07-13T02:35:27;16.40;99.90
18067;DHT22;9158;51.528;7.192;2023-07-13T02:35:57;16.40;99.90
18067;DHT22;9158;51.528;7.192;2023-07-13T02:36:29;16.40;99.90
18067;DHT22;9158;51.528;7.192;2023-07-13T02:37:01;16.40;99.90
18067;DHT22;9158;51.528;7.192;2023-07-13T02:37:33;16.40;99.90
18067;DHT22;9158;51.528;7.192;2023-07-13T02:38:04;16.40;99.90
18067;DHT22;9158;51.528;7.192;2023-07-13T02:38:36;16.40;99.00
18067;DHT22;9158;51.528;7.192;2023-07-13T02:39:09;16.30;98.80
18067;DHT22;9158;51.528;7.192;2023-07-13T02:39:41;16.30;99.80
18067;DHT22;9158;51.528;7.192;2023-07-13T02:40:12;16.40;99.90
18067;DHT22;9158;51.528;7.192;2023-07-13T02:40:43;16.40;99.90
18067;DHT22;9158;51.528;7.192;2023-07-13T02:41:16;16.40;99.90
18067;DHT22;9158;51.528;7.192;2023-07-13T02:41:47;16.40;99.90
18067;DHT22;9158;51.528;7.192;2023-07-13T02:42:18;16.40;99.90
18067;DHT22;9158;51.528;7.192;2023-07-13T02:42:49;16.40;99.90
18067;DHT22;9158;51.528;7.192;2023-07-13T02:43:22;16.40;99.90
18067;DHT22;9158;51.528;7.192;2023-07-13T02:43:53;16.30;99.90
18067;DHT22;9158;51.528;7.192;2023-07-13T02:44:23;16.30;99.90
18067;DHT22;9158;51.528;7.192;2023-07-13T02:44:54;16.30;99.90
18067;DHT22;9158;51.528;7.192;2023-07-13T02:45:26;16.30;99.90
18067;DHT22;9158;51.528;7.192;2023-07-13T02:45:58;16.30;99.90
18067;DHT22;9158;51.528;7.192;2023-07-13T02:46:35;16.30;99.90
18067;DHT22;9158;51.528;7.192;2023-07-13T02:47:08;16.30;99.90
18067;DHT22;9158;51.528;7.192;2023-07-13T02:47:40;16.30;99.90
18067;DHT22;9158;51.528;7.192;2023-07-13T02:48:13;16.30;99.90
18067;DHT22;9158;51.528;7.192;2023-07-13T02:48:45;16.30;99.90
18067;DHT22;9158;51.528;7.192;2023-07-13T02:49:18;16.30;99.90
18067;DHT22;9158;51.528;7.192;2023-07-13T02:49:49;16.30;99.90
18067;DHT22;9158;51.528;7.192;2023-07-13T02:50:20;16.30;99.90
18067;DHT22;9158;51.528;7.192;2023-07-13T02:50:52;16.30;99.90
18067;DHT22;9158;51.528;7.192;2023-07-13T02:51:23;16.30;99.90
18067;DHT22;9158;51.528;7.192;2023-07-13T02:51:54;16.30;99.90
18067;DHT22;9158;51.528;7.192;2023-07-13T02:52:26;16.30;99.90
18067;DHT22;9158;51.528;7.192;2023-07-13T02:52:58;16.40;99.90
18067;DHT22;9158;51.528;7.192;2023-07-13T02:53:29;16.30;99.90
18067;DHT22;9158;51.528;7.192;2023-07-13T02:54:00;16.30;99.90
18067;DHT22;9158;51.528;7.192;2023-07-13T02:54:32;16.40;99.90
18067;DHT22;9158;51.528;7.192;2023-07-13T02:55:04;16.30;99.90
18067;DHT22;9158;51.528;7.192;2023-07-13T02:55:35;16.40;99.90
18067;DHT22;9158;51.528;7.192;2023-07-13T02:56:07;16.40;99.90
18067;DHT22;9158;51.528;7.192;2023-07-13T02:56:39;16.40;99.90
18067;DHT22;9158;51.528;7.192;2023-07-13T02:57:10;16.40;99.90
18067;DHT22;9158;51.528;7.192;2023-07-13T02:57:41;16.30;99.90
18067;DHT22;9158;51.528;7.192;2023-07-13T02:58:12;16.30;99.90
18067;DHT22;9158;51.528;7.192;2023-07-13T02:58:47;16.30;99.90
18067;DHT22;9158;51.528;7.192;2023-07-13T02:59:18;16.30;99.90
18067;DHT22;9158;51.528;7.192;2023-07-13T02:59:49;16.30;99.90
18067;DHT22;9158;51.528;7.192;2023-07-13T03:00:20;16.30;99.90
18067;DHT22;9158;51.528;7.192;2023-07-13T03:00:53;16.30;99.90
18067;DHT22;9158;51.528;7.192;2023-07-13T03:01:24;16.30;99.90
18067;DHT22;9158;51.528;7.192;2023-07-13T03:01:55;16.30;99.90
18067;DHT22;9158;51.528;7.192;2023-07-13T03:02:26;16.30;99.90
18067;DHT22;9158;51.528;7.192;2023-07-13T03:02:58;16.30;99.90
18067;DHT22;9158;51.528;7.192;2023-07-13T03:03:30;16.30;99.90
18067;DHT22;9158;51.528;7.192;2023-07-13T03:04:02;16.20;99.90
18067;DHT22;9158;51.528;7.192;2023-07-13T03:04:35;16.20;99.90
18067;DHT22;9158;51.528;7.192;2023-07-13T03:05:08;16.20;99.90
18067;DHT22;9158;51.528;7.192;2023-07-13T03:05:44;16.20;99.90
18067;DHT22;9158;51.528;7.192;2023-07-13T03:06:20;16.30;99.90
18067;DHT22;9158;51.528;7.192;2023-07-13T03:06:55;16.30;99.90
18067;DHT22;9158;51.528;7.192;2023-07-13T03:07:31;16.30;99.90
18067;DHT22;9158;51.528;7.192;2023-07-13T03:08:03;16.20;99.90
18067;DHT22;9158;51.528;7.192;2023-07-13T03:08:34;16.20;99.90
18067;DHT22;9158;51.528;7.192;2023-07-13T03:09:05;16.20;99.90
18067;DHT22;9158;51.528;7.192;2023-07-13T03:09:40;16.20;99.90
18067;DHT22;9158;51.528;7.192;2023-07-13T03:10:12;16.20;99.90
18067;DHT22;9158;51.528;7.192;2023-07-13T03:10:49;16.20;99.90
18067;DHT22;9158;51.528;7.192;2023-07-13T03:11:29;16.20;99.90
18067;DHT22;9158;51.528;7.192;2023-07-13T03:12:10;16.10;99.90
18067;DHT22;9158;51.528;7.192;2023-07-13T03:12:41;16.10;99.90
18067;DHT22;9158;51.528;7.192;2023-07-13T03:13:17;16.10;99.90
18067;DHT22;9158;51.528;7.192;2023-07-13T03:13:49;16.10;99.90
18067;DHT22;9158;51.528;7.192;2023-07-13T03:14:21;16.10;99.90
18067;DHT22;9158;51.528;7.192;2023-07-13T03:14:52;16.10;99.90
18067;DHT22;9158;51.528;7.192;2023-07-13T03:15:23;16.10;99.90
18067;DHT22;9158;51.528;7.192;2023-07-13T03:15:56;16.10;99.90
18067;DHT22;9158;51.528;7.192;2023-07-13T03:16:28;16.10;99.90
18067;DHT22;9158;51.528;7.192;2023-07-13T03:16:59;16.10;99.90
18067;DHT22;9158;51.528;7.192;2023-07-13T03:17:33;16.10;99.90
18067;DHT22;9158;51.528;7.192;2023-07-13T03:18:06;16.10;99.90
18067;DHT22;9158;51.528;7.192;2023-07-13T03:18:37;16.10;99.90
18067;DHT22;9158;51.528;7.192;2023-07-13T03:19:11;16.10;99.90
18067;DHT22;9158;51.528;7.192;2023-07-13T03:19:42;16.10;99.90
18067;DHT22;9158;51.528;7.192;2023-07-13T03:20:16;16.10;99.90
18067;DHT22;9158;51.528;7.192;2023-07-13T03:20:50;16.10;99.90
18067;DHT22;9158;51.528;7.192;2023-07-13T03:21:21;16.10;99.90
18067;DHT22;9158;51.528;7.192;2023-07-13T03:21:52;16.10;99.90
18067;DHT22;9158;51.528;7.192;2023-07-13T03:22:24;16.10;99.90
18067;DHT22;9158;51.528;7.192;2023-07-13T03:22:57;16.10;99.90
18067;DHT22;9158;51.528;7.192;2023-07-13T03:23:28;16.10;99.90
18067;DHT22;9158;51.528;7.192;2023-07-13T03:23:59;16.10;99.90
18067;DHT22;9158;51.528;7.192;2023-07-13T03:24:32;16.10;99.90
18067;DHT22;9158;51.528;7.192;2023-07-13T03:25:04;16.10;99.90
18067;DHT22;9158;51.528;7.192;2023-07-13T03:25:35;16.10;99.90
18067;DHT22;9158;51.528;7.192;2023-07-13T03:26:09;16.10;99.90
18067;DHT22;9158;51.528;7.192;2023-07-13T03:26:43;16.10;99.90
18067;DHT22;9158;51.528;7.192;2023-07-13T03:27:16;16.10;99.90
18067;DHT22;9158;51.528;7.192;2023-07-13T03:27:48;16.00;99.90